KALX/ALX METAR and TAF weather

Enter ICAO airport designator
Station Type Date Time Source
KALX METAR 2021/06/24 04:55 UTC NOAA

KALX 240455Z AUTO 00000KT 10SM SCT060 22/21 A3013 RMK AO2 T02200211 402880162


Station Type Date Time Source
KALX Decoded METAR 2021/06/24 04:55 UTC NOAA

Alexander City, Thomas C Russell Field Airport, AL, United States (KALX) 32-54-53N 085-57-46W
Jun 24, 2021 - 12:55 AM EDT / 2021.06.24 0455 UTC
Wind: Calm:0
Visibility: 10 mile(s):0
Sky conditions: partly cloudy
Temperature: 71.6 F (22.0 C)
Dew Point: 70.0 F (21.1 C)
Relative Humidity: 94%
Pressure (altimeter): 30.13 in. Hg (1020 hPa)
ob: KALX 240455Z AUTO 00000KT 10SM SCT060 22/21 A3013 RMK AO2 T02200211 402880162
cycle: 5

Station Type Date Time Source
KALX TAF UTC NOAA

Error!

Example: see airport list